Terminal Aerodrome Forecast
Issued by NWS

Home | Current Version | Previous Version | Text Only | Print | Product List | Glossary On
Versions: 1 2 3 4 5 6 7 8 9 10 11 12 13 14 15 16
000
FTUS42 KILM 260535
TAFCRE
TAF
KCRE 260535Z 2606/2706 26003KT P6SM SCT009 BKN040
     FM260900 29005KT 4SM BR OVC004
     FM261500 30007KT P6SM BKN007
     FM261800 26009KT P6SM FEW250 PROB30 2618/2621 5SM -SHRA SCT050
     FM270300 03007KT P6SM OVC008=

USA.gov is the U.S. government's official web portal to all federal, state and local government web resources and services.